Northside, Ohio
Current Conditions -  °F | °C
As of 12:57 PM on Friday 21 Nov 2014 (Local Time) from KI69 Reporting Station
Clear Clear  
Wind Chill: 27°   Ceiling: Unl
Heat Index: 32°   Visibility: 10mi
Dew Point: 12°   Wind: 5mph
Humidity: 44%   Direction: 120°ESE
Pressure: 30.5"   Gusts: NA
Location:  39.1683°N, 84.5521°W
Report Text: KI69 211757Z AUTO 12004KT 10SM CLR 00/M11 A3050 RMK AO1
Loading
Personal Weather Stations






























Interactive Weather Map New forecast layout! Learn more

10-Day Weather Forecast

Advertisements
Track Severe Weather on mobile